Time;durP1;ratioP1;P1;durP2;ratioP2;P2;SDS_P1;SDS_P2;PMS_P1;PMS_P2;Temp;Humidity;BMP_temperature;BMP_pressure;BME280_temperature;BME280_humidity;BME280_pressure;Samples;Min_cycle;Max_cycle;Signal;HPM_P1;HPM_P2
2023/07/24 00:01:50;;;;;;;7.50;6.30;;;17.10;99.90;;;;;;5001866;28;20034;-83
2023/07/24 00:04:17;;;;;;;9.70;6.20;;;17.10;99.90;;;;;;5005460;28;20087;-83
2023/07/24 00:06:42;;;;;;;7.68;6.22;;;17.20;99.90;;;;;;5005073;28;20073;-83
2023/07/24 00:09:08;;;;;;;9.75;6.05;;;17.00;99.90;;;;;;5002679;28;20092;-83
2023/07/24 00:11:34;;;;;;;10.55;6.72;;;17.00;99.90;;;;;;5002002;28;20034;-83
2023/07/24 00:13:59;;;;;;;11.05;5.80;;;16.90;99.90;;;;;;5002796;28;20494;-83
2023/07/24 00:16:25;;;;;;;11.75;6.68;;;16.90;99.90;;;;;;4988793;28;20034;-83
2023/07/24 00:18:51;;;;;;;10.75;7.03;;;16.90;99.90;;;;;;5015562;28;20045;-83
2023/07/24 00:21:16;;;;;;;10.52;7.03;;;16.90;99.90;;;;;;5006949;28;20482;-82
2023/07/24 00:23:42;;;;;;;10.23;6.22;;;16.90;99.90;;;;;;5002474;28;20026;-82
2023/07/24 00:26:08;;;;;;;9.02;5.72;;;16.80;99.90;;;;;;4994993;28;20494;-82
2023/07/24 00:28:33;;;;;;;8.07;6.30;;;17.30;99.90;;;;;;4998388;28;20043;-82
2023/07/24 00:30:59;;;;;;;11.15;6.28;;;16.80;99.90;;;;;;5002650;28;20050;-82
2023/07/24 00:33:26;;;;;;;11.90;6.03;;;16.70;99.90;;;;;;5004920;28;20065;-82
2023/07/24 00:35:56;;;;;;;11.48;7.30;;;16.70;99.90;;;;;;5003675;28;20046;-82
2023/07/24 00:38:21;;;;;;;8.93;6.30;;;17.10;99.90;;;;;;5001579;28;20506;-82
2023/07/24 00:40:47;;;;;;;8.77;6.32;;;16.70;99.90;;;;;;5001362;28;20083;-81
2023/07/24 00:43:13;;;;;;;8.80;6.35;;;16.70;99.90;;;;;;5003954;28;20034;-81
2023/07/24 00:45:38;;;;;;;11.40;6.47;;;16.70;99.90;;;;;;5007281;28;20037;-82
2023/07/24 00:48:04;;;;;;;9.68;6.35;;;17.00;99.90;;;;;;5018806;28;20490;-81
2023/07/24 00:50:30;;;;;;;11.98;7.05;;;16.70;99.90;;;;;;5012281;28;20100;-82
2023/07/24 00:52:57;;;;;;;15.55;6.47;;;16.70;99.90;;;;;;5004114;28;20045;-82
2023/07/24 00:55:22;;;;;;;9.40;6.05;;;16.70;99.90;;;;;;4997421;28;20046;-82
2023/07/24 00:57:49;;;;;;;9.05;6.15;;;16.70;99.90;;;;;;5004310;28;20034;-81
2023/07/24 01:00:15;;;;;;;8.63;6.22;;;17.00;99.90;;;;;;5001115;28;20038;-81
2023/07/24 01:02:42;;;;;;;9.00;6.28;;;16.60;99.90;;;;;;5000852;28;20034;-82
2023/07/24 01:05:10;;;;;;;9.30;6.68;;;16.70;99.90;;;;;;5002462;28;20043;-81
2023/07/24 01:07:37;;;;;;;12.70;6.85;;;17.30;99.90;;;;;;5004392;28;20060;-82
2023/07/24 01:10:02;;;;;;;9.23;7.28;;;16.60;99.90;;;;;;5003420;28;20089;-82
2023/07/24 01:12:34;;;;;;;11.48;7.07;;;16.60;99.90;;;;;;4986626;28;20077;-82
2023/07/24 01:15:24;;;;;;;9.48;7.35;;;16.60;99.90;;;;;;5003405;28;20146;-82
2023/07/24 01:18:24;;;;;;;9.80;8.13;;;16.60;99.90;;;;;;5000048;28;20185;-82
2023/07/24 01:20:55;;;;;;;9.35;7.78;;;16.60;99.90;;;;;;4963213;28;20495;-81
2023/07/24 01:23:37;;;;;;;12.27;8.55;;;16.60;99.90;;;;;;4992878;28;20502;-81
2023/07/24 01:26:03;;;;;;;9.55;8.10;;;16.60;99.90;;;;;;5000965;28;20545;-82
2023/07/24 01:28:29;;;;;;;10.60;8.00;;;16.50;99.90;;;;;;5004050;28;20057;-82
2023/07/24 01:30:56;;;;;;;12.13;8.30;;;16.50;99.90;;;;;;5003774;28;20050;-81
2023/07/24 01:33:23;;;;;;;11.13;8.48;;;16.50;99.90;;;;;;4992054;28;20046;-82
2023/07/24 01:35:53;;;;;;;12.60;8.88;;;16.50;99.90;;;;;;5000498;28;20038;-82
2023/07/24 01:38:19;;;;;;;11.95;8.57;;;16.40;99.90;;;;;;5008381;28;20410;-82
2023/07/24 01:40:45;;;;;;;13.77;10.02;;;16.50;99.90;;;;;;4999891;28;20109;-82
2023/07/24 01:43:11;;;;;;;12.02;9.38;;;16.40;99.90;;;;;;5002686;28;20046;-84
2023/07/24 01:45:36;;;;;;;15.23;10.15;;;16.40;99.90;;;;;;4998206;28;20075;-81
2023/07/24 01:48:05;;;;;;;13.10;11.00;;;16.40;99.90;;;;;;5001279;28;20069;-82
2023/07/24 01:50:31;;;;;;;14.82;11.57;;;16.40;99.90;;;;;;4999066;28;20407;-82
2023/07/24 01:52:56;;;;;;;13.85;11.45;;;16.40;99.90;;;;;;4999767;28;20034;-82
2023/07/24 01:55:22;;;;;;;12.25;10.88;;;16.40;99.90;;;;;;4992560;28;20034;-82
2023/07/24 01:57:48;;;;;;;15.32;10.40;;;16.40;99.90;;;;;;5000228;28;20041;-82
2023/07/24 02:00:13;;;;;;;12.77;11.25;;;16.40;99.90;;;;;;4984204;28;20137;-82
2023/07/24 02:02:39;;;;;;;13.43;12.05;;;16.40;99.90;;;;;;5008194;28;20350;-83
2023/07/24 02:05:05;;;;;;;12.80;11.48;;;16.40;99.90;;;;;;5012336;28;20137;-82
2023/07/24 02:07:31;;;;;;;12.65;10.82;;;16.40;99.90;;;;;;4988023;28;20545;-82
2023/07/24 02:09:56;;;;;;;14.07;10.63;;;16.40;99.90;;;;;;5003814;28;20061;-82
2023/07/24 02:12:22;;;;;;;12.07;10.75;;;16.40;99.90;;;;;;4974820;28;20050;-82
2023/07/24 02:14:49;;;;;;;14.63;11.63;;;16.40;99.90;;;;;;5003318;28;20035;-81
2023/07/24 02:17:16;;;;;;;13.40;11.80;;;16.40;99.90;;;;;;5021909;28;20130;-83
2023/07/24 02:19:41;;;;;;;13.05;11.30;;;17.00;99.90;;;;;;5004229;28;20033;-82
2023/07/24 02:22:07;;;;;;;12.27;10.98;;;16.40;99.90;;;;;;4988464;28;20057;-82
2023/07/24 02:24:33;;;;;;;13.20;11.70;;;16.40;99.90;;;;;;5003794;28;20042;-82
2023/07/24 02:26:59;;;;;;;11.77;10.57;;;16.40;99.90;;;;;;4986502;28;20101;-82
2023/07/24 02:29:24;;;;;;;11.48;10.38;;;16.40;99.90;;;;;;5006007;28;20050;-81
2023/07/24 02:31:50;;;;;;;16.00;12.18;;;16.40;99.90;;;;;;4989531;28;20038;-82
2023/07/24 02:34:16;;;;;;;13.93;12.10;;;16.40;99.90;;;;;;5005005;28;20049;-82
2023/07/24 02:36:42;;;;;;;12.77;11.40;;;16.60;99.90;;;;;;5003559;28;20031;-82
2023/07/24 02:39:07;;;;;;;12.32;11.13;;;16.30;99.90;;;;;;5004455;28;20038;-83
2023/07/24 02:41:33;;;;;;;12.55;11.32;;;16.40;99.90;;;;;;5006298;28;20389;-82
2023/07/24 02:43:59;;;;;;;14.57;10.52;;;16.30;99.90;;;;;;4989640;28;20453;-82
2023/07/24 02:46:24;;;;;;;13.65;11.73;;;16.30;99.90;;;;;;5003926;28;20031;-82
2023/07/24 02:48:51;;;;;;;12.75;10.82;;;16.30;99.90;;;;;;5002917;28;20421;-82
2023/07/24 02:51:17;;;;;;;14.98;11.25;;;16.40;99.90;;;;;;5005225;28;20117;-82
2023/07/24 02:53:42;;;;;;;12.98;10.35;;;16.40;99.90;;;;;;4989075;28;20183;-82
2023/07/24 02:56:08;;;;;;;12.77;9.85;;;16.60;99.90;;;;;;5005353;28;20486;-82
2023/07/24 02:58:33;;;;;;;12.23;9.60;;;16.40;99.90;;;;;;5003199;28;20469;-82
2023/07/24 03:01:04;;;;;;;14.25;8.90;;;16.40;99.90;;;;;;5002825;28;20531;-82
2023/07/24 03:03:29;;;;;;;13.23;9.75;;;16.40;99.90;;;;;;4994909;28;20046;-82
2023/07/24 03:05:55;;;;;;;12.60;9.07;;;17.40;99.90;;;;;;5003314;28;20406;-82
2023/07/24 03:08:21;;;;;;;9.20;8.25;;;16.60;99.90;;;;;;5005886;28;20057;-82
2023/07/24 03:10:46;;;;;;;15.43;9.60;;;16.40;99.90;;;;;;5005916;28;20371;-83
2023/07/24 03:13:12;;;;;;;12.85;9.50;;;16.40;99.90;;;;;;5005146;28;20041;-82
2023/07/24 03:15:37;;;;;;;13.77;8.98;;;17.00;99.90;;;;;;5003367;28;20038;-82
2023/07/24 03:18:03;;;;;;;11.20;8.80;;;16.80;99.90;;;;;;5002692;28;20042;-82
2023/07/24 03:20:29;;;;;;;12.45;8.55;;;16.40;99.90;;;;;;4988418;28;20470;-83
2023/07/24 03:22:54;;;;;;;10.10;8.10;;;16.50;99.90;;;;;;5006647;28;20370;-82
2023/07/24 03:25:20;;;;;;;9.38;7.65;;;16.50;99.90;;;;;;5003589;28;20041;-82
2023/07/24 03:27:46;;;;;;;8.75;7.63;;;16.50;99.90;;;;;;5002814;28;20042;-83
2023/07/24 03:30:11;;;;;;;9.45;8.38;;;16.50;99.90;;;;;;5003444;28;20047;-83
2023/07/24 03:32:37;;;;;;;11.88;8.43;;;16.50;99.90;;;;;;5005436;28;20152;-82
2023/07/24 03:35:05;;;;;;;9.82;7.78;;;16.50;99.90;;;;;;5006136;28;20042;-82
2023/07/24 03:37:31;;;;;;;10.15;8.40;;;16.50;99.90;;;;;;4985470;28;20089;-82
2023/07/24 03:39:56;;;;;;;13.63;8.80;;;16.50;99.90;;;;;;5001766;28;20041;-81
2023/07/24 03:42:31;;;;;;;9.95;8.45;;;16.90;99.90;;;;;;5006795;28;20042;-81
2023/07/24 03:44:57;;;;;;;11.90;8.85;;;16.60;99.90;;;;;;5026122;28;20022;-82
2023/07/24 03:47:23;;;;;;;11.43;7.95;;;16.60;99.90;;;;;;5014772;28;20042;-82
2023/07/24 03:49:50;;;;;;;10.98;8.63;;;16.60;99.90;;;;;;5012215;28;20032;-82
2023/07/24 03:52:15;;;;;;;9.52;8.52;;;16.50;99.90;;;;;;5007575;28;20049;-82
2023/07/24 03:54:41;;;;;;;10.45;8.40;;;16.60;99.90;;;;;;5009751;28;20042;-82
2023/07/24 03:57:07;;;;;;;11.55;7.88;;;16.50;99.90;;;;;;5002340;28;20053;-83
2023/07/24 03:59:33;;;;;;;11.07;8.50;;;16.60;99.90;;;;;;5004149;28;20449;-83
2023/07/24 04:01:59;;;;;;;9.77;8.05;;;16.70;99.90;;;;;;4988282;28;20402;-82
2023/07/24 04:04:24;;;;;;;11.65;9.05;;;17.40;99.90;;;;;;5003338;28;20045;-82
2023/07/24 04:06:50;;;;;;;12.00;8.35;;;16.60;99.90;;;;;;5001635;28;20049;-82
2023/07/24 04:09:16;;;;;;;11.05;8.05;;;16.60;99.90;;;;;;5002488;28;20043;-83
2023/07/24 04:11:43;;;;;;;10.57;8.27;;;16.60;99.90;;;;;;5005764;28;20037;-82
2023/07/24 04:14:08;;;;;;;14.23;8.60;;;16.60;99.90;;;;;;4987566;28;20038;-82
2023/07/24 04:16:34;;;;;;;9.98;7.55;;;16.60;99.90;;;;;;4987841;28;20046;-82
2023/07/24 04:19:00;;;;;;;9.15;8.02;;;16.60;99.90;;;;;;4987918;28;20498;-82
2023/07/24 04:21:25;;;;;;;9.27;8.20;;;16.60;99.90;;;;;;4985280;28;20120;-82
2023/07/24 04:23:51;;;;;;;10.52;8.98;;;17.60;99.90;;;;;;4968314;28;20123;-82
2023/07/24 04:26:17;;;;;;;9.10;8.20;;;16.60;99.90;;;;;;4984766;28;20039;-83
2023/07/24 04:28:42;;;;;;;10.38;9.35;;;16.60;99.90;;;;;;5004370;28;20092;-82
2023/07/24 04:31:08;;;;;;;9.88;8.88;;;16.60;99.90;;;;;;5004883;28;20046;-82
2023/07/24 04:33:33;;;;;;;10.98;8.77;;;16.60;99.90;;;;;;5002402;28;20978;-82
2023/07/24 04:35:59;;;;;;;10.73;9.73;;;16.60;99.90;;;;;;5001777;28;20050;-82
2023/07/24 04:38:25;;;;;;;12.65;9.52;;;16.60;99.90;;;;;;4985316;28;20384;-82
2023/07/24 04:40:50;;;;;;;11.63;9.43;;;16.60;99.90;;;;;;4987164;28;20045;-82
2023/07/24 04:43:16;;;;;;;13.27;9.85;;;16.60;99.90;;;;;;5003353;28;20062;-82
2023/07/24 04:45:42;;;;;;;11.60;9.88;;;16.60;99.90;;;;;;5002144;28;20038;-82
2023/07/24 04:48:07;;;;;;;10.27;9.23;;;16.60;99.90;;;;;;5001020;28;20073;-82
2023/07/24 04:50:33;;;;;;;10.43;9.27;;;16.70;99.90;;;;;;4993928;28;20042;-82
2023/07/24 04:52:59;;;;;;;12.73;9.57;;;16.70;99.90;;;;;;5007215;28;20479;-82
2023/07/24 04:55:25;;;;;;;10.55;9.55;;;16.90;99.90;;;;;;5001519;28;20046;-81
2023/07/24 04:57:50;;;;;;;11.43;10.25;;;16.60;99.90;;;;;;4993585;28;20050;-82
2023/07/24 05:00:16;;;;;;;13.25;10.77;;;16.60;99.90;;;;;;4985357;28;20510;-83
2023/07/24 05:02:42;;;;;;;10.82;9.73;;;16.60;99.90;;;;;;5001902;28;20054;-82
2023/07/24 05:05:08;;;;;;;14.70;9.88;;;16.60;99.90;;;;;;5002658;28;20038;-82
2023/07/24 05:07:34;;;;;;;12.50;9.30;;;16.60;99.90;;;;;;4987393;28;20449;-83
2023/07/24 05:10:00;;;;;;;10.20;9.20;;;16.60;99.90;;;;;;5006173;28;20129;-83
2023/07/24 05:12:26;;;;;;;10.32;9.20;;;16.70;99.90;;;;;;5020397;28;20034;-84
2023/07/24 05:14:51;;;;;;;10.60;9.02;;;16.70;99.90;;;;;;5009243;28;20415;-82
2023/07/24 05:17:17;;;;;;;12.00;8.98;;;16.60;99.90;;;;;;5009781;28;20050;-82
2023/07/24 05:19:43;;;;;;;13.00;9.68;;;16.70;99.90;;;;;;5002781;28;20042;-83
2023/07/24 05:22:10;;;;;;;12.45;10.40;;;16.80;99.90;;;;;;5000996;28;20049;-83
2023/07/24 05:24:36;;;;;;;10.25;8.65;;;16.70;99.90;;;;;;5003672;28;20092;-82
2023/07/24 05:27:02;;;;;;;10.10;9.07;;;16.80;99.90;;;;;;5005307;28;20056;-83
2023/07/24 05:29:28;;;;;;;13.73;9.85;;;16.80;99.90;;;;;;5003570;28;20048;-82
2023/07/24 05:31:54;;;;;;;11.90;10.70;;;16.80;99.90;;;;;;5002372;28;20034;-82
2023/07/24 05:34:19;;;;;;;11.70;10.57;;;16.80;99.90;;;;;;5008484;28;20098;-83
2023/07/24 05:36:45;;;;;;;10.70;9.60;;;16.80;99.90;;;;;;5010431;28;20033;-83
2023/07/24 05:39:10;;;;;;;9.85;8.85;;;16.80;99.90;;;;;;5004214;28;20050;-83
2023/07/24 05:41:36;;;;;;;11.60;8.68;;;16.80;99.90;;;;;;5002131;28;20045;-83
2023/07/24 05:44:02;;;;;;;10.25;9.25;;;16.90;99.90;;;;;;5000478;28;20050;-83
2023/07/24 05:46:27;;;;;;;11.75;9.45;;;16.80;99.90;;;;;;5000242;28;20049;-83
2023/07/24 05:48:53;;;;;;;9.73;8.48;;;17.30;99.90;;;;;;5003403;28;20038;-82
2023/07/24 05:51:18;;;;;;;10.07;9.00;;;16.80;99.90;;;;;;5003386;28;20038;-82
2023/07/24 05:53:44;;;;;;;10.52;9.27;;;16.90;99.90;;;;;;5001441;28;20046;-82
2023/07/24 05:56:10;;;;;;;12.70;9.70;;;16.90;99.90;;;;;;5002513;28;20068;-82
2023/07/24 05:58:35;;;;;;;13.23;9.05;;;16.90;99.90;;;;;;4984339;28;20156;-82
2023/07/24 06:01:01;;;;;;;11.27;9.88;;;16.90;99.90;;;;;;5001360;28;20506;-82
2023/07/24 06:03:27;;;;;;;9.80;8.77;;;16.90;99.90;;;;;;5000693;28;20057;-82
2023/07/24 06:05:54;;;;;;;13.63;8.93;;;16.90;99.90;;;;;;4986780;28;20073;-83
2023/07/24 06:08:20;;;;;;;10.75;9.30;;;16.90;99.90;;;;;;5004344;28;20065;-83
2023/07/24 06:10:50;;;;;;;10.38;8.30;;;16.90;99.90;;;;;;5003432;28;20053;-82
2023/07/24 06:13:17;;;;;;;9.45;8.20;;;16.90;99.90;;;;;;5005545;28;20045;-81
2023/07/24 06:15:43;;;;;;;9.15;8.20;;;16.90;99.90;;;;;;4969088;28;20453;-82
2023/07/24 06:18:09;;;;;;;10.23;8.45;;;16.90;99.90;;;;;;5002155;28;20030;-84
2023/07/24 06:20:35;;;;;;;10.65;8.88;;;17.00;99.90;;;;;;4984437;28;20550;-83
2023/07/24 06:23:00;;;;;;;15.88;9.48;;;17.00;99.90;;;;;;5003720;28;20133;-82
2023/07/24 06:25:26;;;;;;;10.35;8.45;;;17.10;99.90;;;;;;5006155;28;20038;-82
2023/07/24 06:27:51;;;;;;;11.75;9.57;;;17.10;99.90;;;;;;4982160;28;20450;-83
2023/07/24 06:30:17;;;;;;;12.48;8.98;;;17.10;99.90;;;;;;4999823;28;20034;-83
2023/07/24 06:32:43;;;;;;;10.90;8.60;;;17.10;99.90;;;;;;5002012;28;20051;-83
2023/07/24 06:35:09;;;;;;;9.68;8.57;;;17.70;99.90;;;;;;4998386;28;20039;-83
2023/07/24 06:37:34;;;;;;;12.57;9.52;;;17.20;99.90;;;;;;5001566;28;20088;-83
2023/07/24 06:40:00;;;;;;;12.48;9.05;;;17.20;99.90;;;;;;5014814;28;20026;-82
2023/07/24 06:42:26;;;;;;;10.85;9.68;;;17.20;99.90;;;;;;4990005;28;20046;-84
2023/07/24 06:44:51;;;;;;;11.18;8.95;;;17.50;99.90;;;;;;5004168;28;20049;-83
2023/07/24 06:47:17;;;;;;;11.25;9.48;;;17.20;99.90;;;;;;4998450;28;20043;-82
2023/07/24 06:49:43;;;;;;;11.35;9.10;;;17.20;99.90;;;;;;4990036;28;20046;-82
2023/07/24 06:52:08;;;;;;;12.82;9.18;;;17.20;99.90;;;;;;5000515;28;20077;-82
2023/07/24 06:54:34;;;;;;;11.68;9.02;;;17.70;99.90;;;;;;5000384;28;20503;-82
2023/07/24 06:56:59;;;;;;;15.65;9.80;;;17.60;99.90;;;;;;4999930;28;20038;-82
2023/07/24 06:59:25;;;;;;;13.23;9.23;;;17.20;99.90;;;;;;4999755;28;20058;-81
2023/07/24 07:01:51;;;;;;;11.45;9.32;;;17.30;99.90;;;;;;5002332;28;20412;-82
2023/07/24 07:04:16;;;;;;;16.75;9.65;;;17.30;99.90;;;;;;5002830;28;20133;-82
2023/07/24 07:06:42;;;;;;;13.23;9.50;;;17.70;99.90;;;;;;4996826;28;20124;-82
2023/07/24 07:09:08;;;;;;;15.57;10.02;;;17.40;99.90;;;;;;5006184;28;20073;-82
2023/07/24 07:11:33;;;;;;;16.73;9.20;;;17.40;99.90;;;;;;5007011;28;20046;-81
2023/07/24 07:13:59;;;;;;;15.70;10.27;;;17.40;99.90;;;;;;5003445;28;20053;-82
2023/07/24 07:16:24;;;;;;;16.02;9.82;;;17.50;99.90;;;;;;4988117;28;20462;-82
2023/07/24 07:18:50;;;;;;;13.15;10.05;;;17.50;99.90;;;;;;5001607;28;20073;-83
2023/07/24 07:21:17;;;;;;;13.68;9.13;;;17.50;99.90;;;;;;4994278;28;20503;-83
2023/07/24 07:23:43;;;;;;;16.63;10.00;;;17.50;99.90;;;;;;5004501;28;20569;-82
2023/07/24 07:26:09;;;;;;;14.95;9.63;;;17.50;99.90;;;;;;5006826;28;20116;-83
2023/07/24 07:28:35;;;;;;;15.02;9.25;;;17.60;99.90;;;;;;5006241;28;20120;-83
2023/07/24 07:31:00;;;;;;;13.52;9.18;;;17.60;99.90;;;;;;4993913;28;20464;-83
2023/07/24 07:33:26;;;;;;;13.40;9.35;;;17.60;99.90;;;;;;5002754;28;20141;-83
2023/07/24 07:35:51;;;;;;;18.13;10.43;;;17.60;99.90;;;;;;5004871;28;20133;-83
2023/07/24 07:38:17;;;;;;;13.48;9.50;;;17.60;99.90;;;;;;5005817;28;20053;-83
2023/07/24 07:40:43;;;;;;;15.88;8.98;;;17.70;99.90;;;;;;5004902;28;20092;-83
2023/07/24 07:43:09;;;;;;;13.10;9.70;;;17.70;99.90;;;;;;5005464;28;20101;-83
2023/07/24 07:45:34;;;;;;;17.23;10.15;;;17.70;99.90;;;;;;5003728;28;20038;-82
2023/07/24 07:48:00;;;;;;;14.38;10.05;;;17.80;99.90;;;;;;5005905;28;20057;-82
2023/07/24 07:50:25;;;;;;;13.38;9.02;;;17.80;99.90;;;;;;4989343;28;20104;-83
2023/07/24 07:52:52;;;;;;;18.17;10.20;;;17.80;99.90;;;;;;5007320;28;20045;-82
2023/07/24 07:55:19;;;;;;;14.90;9.40;;;18.40;99.90;;;;;;5006979;28;20049;-82
2023/07/24 07:57:45;;;;;;;14.20;7.97;;;17.90;99.90;;;;;;4998616;28;20438;-82
2023/07/24 08:00:11;;;;;;;14.23;8.25;;;17.90;99.90;;;;;;5011184;28;20050;-82
2023/07/24 08:02:39;;;;;;;16.63;9.40;;;17.90;99.90;;;;;;5003011;28;20088;-82
2023/07/24 08:05:09;;;;;;;12.68;9.35;;;18.00;99.90;;;;;;4988877;28;20037;-82
2023/07/24 08:07:35;;;;;;;13.05;9.02;;;18.00;99.90;;;;;;5018147;28;20053;-81
2023/07/24 08:10:01;;;;;;;17.10;9.65;;;18.10;99.90;;;;;;5014685;28;20046;-82
2023/07/24 08:12:26;;;;;;;17.08;9.75;;;18.10;99.90;;;;;;5002305;28;20147;-82
2023/07/24 08:14:52;;;;;;;14.30;9.25;;;18.10;99.90;;;;;;5003171;28;20117;-82
2023/07/24 08:17:17;;;;;;;18.50;9.30;;;18.20;99.90;;;;;;5001685;28;20031;-82
2023/07/24 08:19:43;;;;;;;15.85;11.48;;;18.20;99.90;;;;;;5000813;28;20038;-83
2023/07/24 08:22:09;;;;;;;15.60;9.32;;;18.70;99.90;;;;;;5005417;28;20509;-82
2023/07/24 08:24:35;;;;;;;14.15;9.23;;;19.10;99.90;;;;;;5005396;28;20092;-83
2023/07/24 08:27:01;;;;;;;16.52;10.27;;;18.20;99.90;;;;;;5002235;28;20096;-82
2023/07/24 08:29:27;;;;;;;15.32;9.93;;;18.20;99.90;;;;;;5002852;28;20039;-82
2023/07/24 08:31:53;;;;;;;14.63;9.48;;;18.20;99.90;;;;;;5005097;28;20046;-83
2023/07/24 08:34:18;;;;;;;17.83;9.63;;;18.30;99.90;;;;;;5007577;28;20405;-82
2023/07/24 08:36:44;;;;;;;15.73;9.43;;;18.30;99.90;;;;;;5015734;28;20030;-82
2023/07/24 08:39:09;;;;;;;13.98;10.05;;;18.20;99.90;;;;;;5003367;28;20061;-83
2023/07/24 08:41:37;;;;;;;16.45;10.10;;;18.30;99.90;;;;;;4983717;28;20035;-83
2023/07/24 08:44:05;;;;;;;15.88;9.98;;;18.20;99.90;;;;;;5004054;28;20039;-84
2023/07/24 08:46:35;;;;;;;19.05;9.65;;;19.00;99.90;;;;;;5005423;28;20045;-83
2023/07/24 08:49:01;;;;;;;16.63;9.73;;;18.30;99.90;;;;;;5001730;28;20564;-83
2023/07/24 08:51:27;;;;;;;16.05;8.43;;;18.30;99.90;;;;;;5001297;28;20073;-83
2023/07/24 08:53:53;;;;;;;16.80;8.20;;;18.40;99.90;;;;;;5002518;28;20038;-83
2023/07/24 08:56:19;;;;;;;22.63;9.60;;;18.50;99.90;;;;;;5004179;28;20094;-83
2023/07/24 08:58:45;;;;;;;19.50;8.23;;;18.50;99.90;;;;;;5004527;28;20458;-83
2023/07/24 09:01:11;;;;;;;15.32;9.13;;;18.60;99.90;;;;;;5001468;28;20057;-83
2023/07/24 09:03:37;;;;;;;19.80;9.85;;;18.60;99.90;;;;;;4993539;28;20050;-82
2023/07/24 09:06:09;;;;;;;17.73;9.27;;;18.60;99.90;;;;;;5005454;28;20046;-84
2023/07/24 09:08:37;;;;;;;18.35;10.23;;;18.70;99.90;;;;;;5001126;28;20066;-84
2023/07/24 09:11:04;;;;;;;17.77;9.43;;;18.70;99.90;;;;;;5004029;28;20046;-82
2023/07/24 09:13:31;;;;;;;16.25;9.68;;;18.70;99.90;;;;;;4986981;28;20397;-84
2023/07/24 09:15:57;;;;;;;16.73;9.20;;;18.70;99.90;;;;;;5002697;28;20026;-83
2023/07/24 09:18:23;;;;;;;13.52;7.72;;;18.70;99.90;;;;;;5002201;28;20054;-83
2023/07/24 09:20:49;;;;;;;15.25;8.70;;;18.70;99.90;;;;;;5002488;28;20127;-83
2023/07/24 09:23:15;;;;;;;14.02;8.45;;;18.80;99.90;;;;;;4992797;28;20561;-83
2023/07/24 09:25:43;;;;;;;15.38;9.32;;;18.80;99.90;;;;;;5002346;28;20499;-83
2023/07/24 09:28:13;;;;;;;16.20;9.43;;;18.90;99.90;;;;;;4988003;28;20050;-82
2023/07/24 09:30:40;;;;;;;15.93;8.25;;;19.00;99.90;;;;;;5006707;28;20124;-82
2023/07/24 09:33:07;;;;;;;16.98;8.48;;;19.10;99.90;;;;;;5002752;28;20042;-82
2023/07/24 09:35:32;;;;;;;21.35;8.70;;;19.00;99.90;;;;;;5017738;28;20045;-82
2023/07/24 09:38:02;;;;;;;10.95;8.75;;;19.20;99.90;;;;;;5008618;28;20038;-82
2023/07/24 09:40:28;;;;;;;11.60;8.00;;;19.30;99.90;;;;;;4970985;28;20390;-83
2023/07/24 09:42:53;;;;;;;15.05;8.95;;;19.30;99.90;;;;;;5004801;28;20065;-83
2023/07/24 09:45:20;;;;;;;15.75;9.30;;;19.30;99.90;;;;;;5000921;28;20045;-83
2023/07/24 09:47:46;;;;;;;16.38;8.95;;;19.40;99.90;;;;;;4983372;28;20046;-82
2023/07/24 09:50:11;;;;;;;15.05;9.25;;;19.50;99.90;;;;;;5008387;28;20044;-83
2023/07/24 09:52:41;;;;;;;13.88;8.82;;;19.60;99.90;;;;;;4998358;28;20037;-83
2023/07/24 09:55:11;;;;;;;15.35;9.35;;;20.50;99.90;;;;;;5002170;28;20096;-82
2023/07/24 09:57:37;;;;;;;12.73;9.05;;;19.80;99.90;;;;;;5006682;28;20037;-83
2023/07/24 10:00:04;;;;;;;13.40;8.70;;;19.90;99.90;;;;;;5003537;28;20410;-83
2023/07/24 10:02:30;;;;;;;13.77;8.68;;;19.90;99.90;;;;;;4986672;28;20115;-83
2023/07/24 10:04:56;;;;;;;10.75;8.32;;;20.00;99.90;;;;;;5003592;28;20549;-83
2023/07/24 10:07:23;;;;;;;13.30;8.15;;;20.10;99.90;;;;;;4996530;28;20053;-83
2023/07/24 10:09:50;;;;;;;14.98;8.55;;;20.20;99.90;;;;;;4996771;28;20049;-83
2023/07/24 10:12:19;;;;;;;11.18;7.38;;;20.30;99.90;;;;;;5003093;28;20057;-83
2023/07/24 10:14:46;;;;;;;11.15;7.68;;;20.30;99.90;;;;;;5004132;28;20046;-82
2023/07/24 10:17:12;;;;;;;12.07;6.82;;;20.30;99.90;;;;;;5002203;28;20105;-83
2023/07/24 10:19:43;;;;;;;8.68;7.32;;;20.30;99.90;;;;;;5000120;28;20436;-82
2023/07/24 10:22:19;;;;;;;13.50;8.13;;;20.30;99.90;;;;;;5002326;28;20483;-82
2023/07/24 10:24:45;;;;;;;11.20;7.00;;;20.30;99.90;;;;;;5003896;28;20034;-83
2023/07/24 10:27:12;;;;;;;9.00;6.32;;;20.20;99.90;;;;;;5002192;28;20042;-83
2023/07/24 10:29:38;;;;;;;12.07;6.15;;;20.30;99.90;;;;;;4982585;28;20041;-83
2023/07/24 10:32:16;;;;;;;8.57;6.03;;;20.20;99.90;;;;;;5000848;28;20050;-83
2023/07/24 10:34:41;;;;;;;11.57;7.05;;;20.20;99.90;;;;;;4985895;28;20046;-84
2023/07/24 10:37:09;;;;;;;11.10;7.15;;;20.20;99.90;;;;;;5002421;28;20573;-83
2023/07/24 10:39:40;;;;;;;10.77;5.90;;;20.30;99.90;;;;;;4999881;28;20057;-83
2023/07/24 10:42:10;;;;;;;11.93;7.43;;;20.40;99.90;;;;;;5003048;28;20457;-83
2023/07/24 10:44:36;;;;;;;10.02;6.72;;;20.50;99.90;;;;;;5011374;28;20116;-83
2023/07/24 10:47:03;;;;;;;8.32;5.80;;;20.60;99.90;;;;;;5015770;28;20045;-83
2023/07/24 10:49:28;;;;;;;8.70;5.60;;;20.60;99.90;;;;;;4999532;28;20042;-83
2023/07/24 10:51:58;;;;;;;12.80;5.30;;;20.60;99.90;;;;;;4997981;28;20014;-83
2023/07/24 10:54:27;;;;;;;8.43;5.72;;;20.60;99.90;;;;;;5001509;28;20116;-83
2023/07/24 10:57:00;;;;;;;10.25;5.82;;;20.50;99.90;;;;;;5007473;28;20129;-82
2023/07/24 10:59:37;;;;;;;11.65;6.40;;;20.50;99.90;;;;;;5012522;28;20045;-83
2023/07/24 11:02:04;;;;;;;14.90;7.13;;;20.50;99.90;;;;;;5020615;28;20055;-84
2023/07/24 11:04:30;;;;;;;11.32;6.88;;;20.50;99.90;;;;;;4999267;28;20478;-82
2023/07/24 11:06:57;;;;;;;6.75;5.45;;;20.50;99.90;;;;;;5012138;28;20045;-83
2023/07/24 11:09:33;;;;;;;8.57;5.80;;;20.60;99.90;;;;;;5010580;28;20045;-83
2023/07/24 11:11:59;;;;;;;11.07;4.95;;;20.50;99.90;;;;;;5008161;28;20056;-84
2023/07/24 11:14:25;;;;;;;7.00;4.90;;;20.30;99.90;;;;;;5002358;28;20058;-82
2023/07/24 11:16:57;;;;;;;6.90;5.15;;;20.30;99.90;;;;;;5009802;28;20042;-83
2023/07/24 11:19:26;;;;;;;9.00;5.65;;;20.20;99.90;;;;;;5004648;28;20108;-83
2023/07/24 11:21:51;;;;;;;11.25;6.13;;;20.00;99.90;;;;;;5005142;28;20466;-83
2023/07/24 11:24:18;;;;;;;12.23;5.97;;;20.00;99.90;;;;;;5004325;28;20078;-83
2023/07/24 11:26:45;;;;;;;10.40;6.60;;;19.90;99.90;;;;;;4989498;28;20446;-84
2023/07/24 11:29:12;;;;;;;10.75;6.47;;;19.90;99.90;;;;;;5007104;28;20054;-82
2023/07/24 11:31:39;;;;;;;8.43;6.55;;;19.90;99.90;;;;;;5007356;28;20049;-83
2023/07/24 11:34:06;;;;;;;10.65;7.40;;;19.90;99.90;;;;;;5007625;28;20052;-83
2023/07/24 11:36:32;;;;;;;7.30;6.40;;;19.90;99.90;;;;;;5004157;28;20482;-83
2023/07/24 11:38:58;;;;;;;9.55;6.75;;;19.90;99.90;;;;;;5004439;28;20046;-81
2023/07/24 11:41:27;;;;;;;8.02;6.25;;;20.00;99.90;;;;;;5010693;28;20038;-81
2023/07/24 11:43:53;;;;;;;9.05;6.50;;;20.10;99.90;;;;;;5005361;28;20649;-84
2023/07/24 11:46:25;;;;;;;12.23;7.03;;;20.20;99.90;;;;;;5001966;28;20082;-83
2023/07/24 11:48:53;;;;;;;14.20;6.15;;;20.40;99.90;;;;;;5006926;28;20048;-84
2023/07/24 11:51:19;;;;;;;5.10;4.35;;;20.50;99.90;;;;;;5008078;28;20077;-83
2023/07/24 11:53:45;;;;;;;9.00;5.47;;;20.70;99.90;;;;;;4999331;28;20073;-84
2023/07/24 11:56:16;;;;;;;6.85;5.32;;;20.70;99.90;;;;;;5006879;28;20057;-83
2023/07/24 11:58:42;;;;;;;9.18;5.78;;;20.70;99.90;;;;;;4977613;28;20038;-83
2023/07/24 12:01:07;;;;;;;15.73;8.43;;;20.50;99.90;;;;;;5003814;28;20050;-83
2023/07/24 12:03:33;;;;;;;10.35;6.65;;;20.50;99.90;;;;;;5005712;28;20578;-83
2023/07/24 12:05:59;;;;;;;10.93;6.53;;;20.40;99.90;;;;;;4988859;28;20033;-82
2023/07/24 12:08:32;;;;;;;9.88;6.60;;;20.30;99.90;;;;;;5007278;28;20041;-82
2023/07/24 12:11:02;;;;;;;8.02;5.90;;;20.10;99.90;;;;;;4986709;28;20061;-80
2023/07/24 12:13:32;;;;;;;10.68;6.75;;;20.00;99.90;;;;;;5003906;28;20471;-83
2023/07/24 12:15:57;;;;;;;8.70;5.82;;;19.90;99.90;;;;;;4988896;28;20121;-83
2023/07/24 12:18:23;;;;;;;7.85;5.43;;;19.80;99.90;;;;;;5004746;28;20069;-82
2023/07/24 12:20:48;;;;;;;7.38;5.80;;;19.80;99.90;;;;;;5007013;28;20096;-81
2023/07/24 12:23:14;;;;;;;10.40;6.88;;;19.70;99.90;;;;;;5007422;28;20052;-81
2023/07/24 12:25:40;;;;;;;10.55;7.57;;;19.60;99.90;;;;;;4986380;28;20034;-81
2023/07/24 12:28:05;;;;;;;8.60;5.78;;;19.40;99.90;;;;;;5015282;28;20113;-80
2023/07/24 12:30:31;;;;;;;11.43;6.10;;;19.20;99.90;;;;;;5020992;28;20041;-80
2023/07/24 12:32:58;;;;;;;5.93;4.78;;;19.00;99.90;;;;;;5014563;28;20046;-81
2023/07/24 12:35:23;;;;;;;4.68;4.20;;;18.80;99.90;;;;;;5005445;28;20085;-79